Time;durP1;ratioP1;P1;durP2;ratioP2;P2;SDS_P1;SDS_P2;PMS_P1;PMS_P2;Temp;Humidity;BMP_temperature;BMP_pressure;BME280_temperature;BME280_humidity;BME280_pressure;Samples;Min_cycle;Max_cycle;Signal;HPM_P1;HPM_P2
2022/01/05 00:00:16;;;;;;;1.35;1.10;;;;;;;11.13;67.79;98073.94;5294291;27;33253;-87
2022/01/05 00:02:45;;;;;;;1.42;1.33;;;;;;;11.09;67.98;98076.66;5314412;27;34228;-89
2022/01/05 00:05:15;;;;;;;4.35;1.95;;;;;;;11.25;67.29;98068.22;5315444;27;33185;-87
2022/01/05 00:07:51;;;;;;;1.98;1.25;;;;;;;11.07;67.80;98075.03;5315004;27;34152;-89
2022/01/05 00:10:31;;;;;;;1.95;1.40;;;;;;;11.04;68.13;98070.81;5320630;27;33975;-93
2022/01/05 00:13:03;;;;;;;1.98;1.27;;;;;;;11.17;67.50;98065.97;5320738;27;34081;-89
2022/01/05 00:15:34;;;;;;;1.87;1.58;;;;;;;10.92;68.46;98063.53;5315101;27;33529;-89
2022/01/05 00:18:03;;;;;;;2.90;1.70;;;;;;;11.03;68.11;98071.72;5295418;27;35715;-89
2022/01/05 00:20:34;;;;;;;1.48;1.37;;;;;;;11.02;68.11;98067.44;5313952;27;34898;-89
2022/01/05 00:23:03;;;;;;;1.80;1.50;;;;;;;11.04;67.83;98059.56;5315228;27;33502;-88
2022/01/05 00:25:36;;;;;;;2.35;1.50;;;;;;;11.12;67.73;98049.75;5320444;27;33575;-89
2022/01/05 00:28:10;;;;;;;1.92;1.37;;;;;;;11.08;68.01;98049.00;5317307;27;33856;-89
2022/01/05 00:30:42;;;;;;;;;;;;;;;11.12;67.69;98043.72;5317433;27;34141;-89
2022/01/05 00:33:14;;;;;;;2.08;1.30;;;;;;;11.27;67.34;98040.47;5315950;27;33772;-89
2022/01/05 00:35:43;;;;;;;1.95;1.52;;;;;;;11.02;68.28;98035.47;5315504;27;33252;-92
2022/01/05 00:38:12;;;;;;;5.03;1.45;;;;;;;11.06;67.94;98030.06;5314915;27;35091;-88
2022/01/05 00:40:42;;;;;;;3.00;1.40;;;;;;;10.94;68.30;98040.09;5320334;27;34836;-91
2022/01/05 00:43:11;;;;;;;2.22;1.30;;;;;;;11.02;67.90;98038.06;5314369;27;33509;-89
2022/01/05 00:45:40;;;;;;;3.90;2.75;;;;;;;10.93;68.32;98030.66;5314208;27;34235;-89
2022/01/05 00:48:09;;;;;;;2.50;1.60;;;;;;;10.93;68.08;98036.69;5316593;27;33587;-89
2022/01/05 00:50:41;;;;;;;2.90;1.95;;;;;;;10.95;68.11;98042.66;5316105;27;33794;-89
2022/01/05 00:53:10;;;;;;;2.10;1.40;;;;;;;11.00;68.00;98039.88;5320179;27;34630;-88
2022/01/05 00:55:38;;;;;;;2.08;1.48;;;;;;;10.78;68.63;98042.50;5315767;27;33239;-89
2022/01/05 00:58:08;;;;;;;2.35;1.40;;;;;;;10.93;68.11;98047.06;5315047;27;34192;-89
2022/01/05 01:00:37;;;;;;;1.40;1.30;;;;;;;10.84;68.26;98042.25;5315014;27;33304;-91
2022/01/05 01:03:09;;;;;;;1.42;1.30;;;;;;;11.07;67.46;98043.91;5314979;27;33983;-90
2022/01/05 01:05:38;;;;;;;2.55;1.70;;;;;;;10.66;68.94;98057.63;5320610;27;33490;-90
2022/01/05 01:08:07;;;;;;;2.97;1.75;;;;;;;10.74;68.62;98061.69;5317936;27;33859;-88
2022/01/05 01:10:36;;;;;;;1.25;1.15;;;;;;;10.98;67.85;98054.66;5315378;27;34450;-89
2022/01/05 01:13:05;;;;;;;3.17;1.77;;;;;;;11.04;67.64;98057.84;5315443;27;33697;-88
2022/01/05 01:15:35;;;;;;;1.87;1.45;;;;;;;10.70;69.01;98050.56;5315008;27;33422;-89
2022/01/05 01:18:04;;;;;;;6.68;2.30;;;;;;;10.86;68.30;98041.25;5315231;27;33857;-89
2022/01/05 01:20:33;;;;;;;1.73;1.23;;;;;;;10.98;67.82;98034.72;5301412;27;33087;-89
2022/01/05 01:23:01;;;;;;;3.92;1.85;;;;;;;10.92;68.53;98040.19;5315391;27;33732;-89
2022/01/05 01:25:30;;;;;;;2.15;1.37;;;;;;;10.98;68.18;98039.09;5315201;27;34372;-91
2022/01/05 01:27:59;;;;;;;2.17;1.52;;;;;;;10.92;68.15;98032.41;5315481;27;34661;-89
2022/01/05 01:30:30;;;;;;;1.87;1.33;;;;;;;10.91;68.31;98035.06;5315843;27;32801;-91
2022/01/05 01:33:00;;;;;;;2.65;1.85;;;;;;;10.93;68.21;98030.66;5321478;27;34224;-91
2022/01/05 01:35:29;;;;;;;1.40;1.30;;;;;;;10.91;68.25;98020.31;5315425;27;33313;-90
2022/01/05 01:37:57;;;;;;;3.65;2.12;;;;;;;10.85;68.61;98028.38;5315075;27;33140;-89
2022/01/05 01:40:26;;;;;;;1.55;1.33;;;;;;;11.07;67.57;98025.75;5315573;27;34012;-89
2022/01/05 01:42:55;;;;;;;3.50;1.67;;;;;;;10.85;68.45;98030.97;5315053;27;33481;-90
2022/01/05 01:45:24;;;;;;;1.95;1.42;;;;;;;10.91;68.22;98022.91;5320995;27;33425;-89
2022/01/05 01:47:53;;;;;;;2.37;1.55;;;;;;;11.06;67.70;98027.47;5314295;26;33909;-90
2022/01/05 01:50:25;;;;;;;3.10;1.62;;;;;;;10.94;68.20;98021.94;5315819;27;33910;-88
2022/01/05 01:52:57;;;;;;;2.75;1.70;;;;;;;11.02;67.93;98012.94;5316573;27;33791;-90
2022/01/05 01:55:26;;;;;;;2.58;1.42;;;;;;;11.07;67.74;98020.53;5315545;27;32442;-91
2022/01/05 01:57:57;;;;;;;;;;;;;;;10.97;67.98;98006.25;5313802;27;34369;-90
2022/01/05 02:00:25;;;;;;;1.80;1.70;;;;;;;10.97;67.90;98017.50;5319876;27;34858;-90
2022/01/05 02:02:54;;;;;;;2.37;1.73;;;;;;;10.89;68.44;98016.94;5316121;27;34288;-90
2022/01/05 02:05:25;;;;;;;2.50;1.35;;;;;;;11.10;67.44;98023.84;5314813;27;33054;-90
2022/01/05 02:07:54;;;;;;;3.33;2.00;;;;;;;11.14;67.30;98019.37;5316474;27;33556;-90
2022/01/05 02:10:23;;;;;;;1.83;1.20;;;;;;;11.14;66.98;98019.37;5322242;27;34553;-90
2022/01/05 02:12:51;;;;;;;1.50;1.27;;;;;;;10.90;68.12;98026.44;5317195;27;34603;-89
2022/01/05 02:15:21;;;;;;;2.35;1.62;;;;;;;11.02;67.61;98020.75;5316565;27;33647;-90
2022/01/05 02:17:55;;;;;;;2.45;1.62;;;;;;;10.99;67.75;98026.03;5316469;27;34506;-90
2022/01/05 02:20:27;;;;;;;2.78;1.60;;;;;;;11.12;67.26;98025.53;5317348;27;34150;-90
2022/01/05 02:22:59;;;;;;;2.08;1.65;;;;;;;11.11;67.31;98019.50;5319496;27;33712;-90
2022/01/05 02:25:28;;;;;;;1.58;1.37;;;;;;;10.88;67.91;98010.91;5322766;27;34237;-90
2022/01/05 02:27:57;;;;;;;1.17;1.05;;;;;;;10.91;67.88;98011.72;5317383;27;33790;-90
2022/01/05 02:30:28;;;;;;;1.67;1.27;;;;;;;11.15;67.36;98022.81;5316780;27;33919;-90
2022/01/05 02:32:57;;;;;;;2.80;1.27;;;;;;;10.86;67.92;98009.31;5316828;27;33873;-89
2022/01/05 02:35:26;;;;;;;2.00;1.20;;;;;;;11.13;66.94;98007.28;5316974;27;33891;-90
2022/01/05 02:37:55;;;;;;;1.62;1.20;;;;;;;11.03;67.30;98006.84;5322479;27;34603;-89
2022/01/05 02:40:25;;;;;;;2.30;1.30;;;;;;;10.97;67.57;97998.47;5316171;27;34650;-92
2022/01/05 02:42:55;;;;;;;2.00;1.30;;;;;;;10.85;68.07;97986.88;5316979;27;32923;-90
2022/01/05 02:45:24;;;;;;;2.85;1.60;;;;;;;10.96;67.61;97989.00;5316602;27;33154;-90
2022/01/05 02:47:55;;;;;;;2.05;1.50;;;;;;;10.89;67.80;97989.25;5316584;27;33562;-90
2022/01/05 02:50:24;;;;;;;2.12;1.58;;;;;;;11.06;67.15;97995.50;5322006;27;33300;-90
2022/01/05 02:52:53;;;;;;;2.12;1.37;;;;;;;11.06;67.11;97996.31;5316615;27;33810;-90
2022/01/05 02:55:21;;;;;;;1.73;1.20;;;;;;;11.03;67.24;97999.06;5316071;27;32915;-90
2022/01/05 02:57:52;;;;;;;1.95;1.23;;;;;;;10.87;67.81;97991.09;5317038;27;34605;-90
2022/01/05 03:00:20;;;;;;;1.75;1.37;;;;;;;11.05;67.14;97999.84;5316194;27;35698;-90
2022/01/05 03:02:49;;;;;;;2.35;1.58;;;;;;;11.03;67.03;97995.63;5318014;27;34852;-90
2022/01/05 03:05:19;;;;;;;3.08;1.52;;;;;;;10.99;67.27;98000.09;5321967;27;33488;-90
2022/01/05 03:07:48;;;;;;;1.50;1.30;;;;;;;10.88;67.42;97991.91;5316736;27;33320;-90
2022/01/05 03:10:17;;;;;;;2.60;1.40;;;;;;;11.13;66.41;97990.88;5316264;27;33685;-91
2022/01/05 03:12:46;;;;;;;5.55;1.85;;;;;;;10.82;67.36;97993.00;5316789;27;34179;-90
2022/01/05 03:15:16;;;;;;;1.60;1.12;;;;;;;11.05;66.41;97997.25;5316502;27;33540;-90
2022/01/05 03:17:44;;;;;;;2.37;1.48;;;;;;;11.21;66.12;97994.84;5322222;27;34761;-90
2022/01/05 03:20:17;;;;;;;2.35;1.42;;;;;;;10.96;66.81;97997.63;5316511;27;34653;-90
2022/01/05 03:22:48;;;;;;;1.85;1.45;;;;;;;10.84;67.24;97990.34;5316639;27;33748;-90
2022/01/05 03:25:19;;;;;;;1.98;1.48;;;;;;;10.85;67.16;97989.47;5317209;27;34125;-90
2022/01/05 03:27:49;;;;;;;1.53;1.30;;;;;;;10.85;67.03;97995.50;5318494;27;33490;-90
2022/01/05 03:30:25;;;;;;;2.08;1.90;;;;;;;10.85;66.91;97989.47;5322387;27;33893;-90
2022/01/05 03:33:08;;;;;;;1.52;1.30;;;;;;;10.93;66.61;97989.97;5303258;27;33629;-90
2022/01/05 03:35:43;;;;;;;2.83;1.67;;;;;;;10.86;66.56;97988.53;5317184;27;34122;-90
2022/01/05 03:38:13;;;;;;;3.37;1.95;;;;;;;10.89;66.51;97994.44;5318033;27;33396;-90
2022/01/05 03:40:42;;;;;;;1.92;1.17;;;;;;;10.87;66.53;97988.50;5317926;27;34953;-90
2022/01/05 03:43:12;;;;;;;3.80;2.17;;;;;;;10.78;66.90;97981.09;5317522;27;33924;-91
2022/01/05 03:45:47;;;;;;;2.20;1.48;;;;;;;10.86;66.60;97989.37;5322676;27;33436;-90
2022/01/05 03:48:18;;;;;;;2.33;1.60;;;;;;;10.81;66.69;97982.72;5322866;27;34630;-90
2022/01/05 03:50:48;;;;;;;2.22;1.52;;;;;;;10.65;67.09;97979.88;5317694;27;33997;-90
2022/01/05 03:53:17;;;;;;;1.98;1.45;;;;;;;10.58;67.27;97988.81;5317785;27;34699;-90
2022/01/05 03:55:47;;;;;;;3.42;1.20;;;;;;;10.80;66.55;97979.28;5317183;27;33659;-90
2022/01/05 03:58:16;;;;;;;4.10;1.40;;;;;;;10.84;66.54;97974.78;5317611;27;33937;-90
2022/01/05 04:00:48;;;;;;;3.72;1.52;;;;;;;10.86;66.53;97972.97;5300961;27;33183;-91
2022/01/05 04:03:18;;;;;;;3.15;1.58;;;;;;;10.96;66.03;97971.69;5317094;27;34598;-90
2022/01/05 04:05:46;;;;;;;3.00;1.48;;;;;;;10.54;67.32;97969.97;5316043;27;33823;-90
2022/01/05 04:08:15;;;;;;;3.87;1.60;;;;;;;10.72;66.62;97962.34;5298085;27;34586;-90
2022/01/05 04:10:44;;;;;;;2.00;1.65;;;;;;;10.79;66.55;97962.00;5317336;27;33846;-90
2022/01/05 04:13:14;;;;;;;4.28;1.92;;;;;;;10.85;66.29;97960.94;5322465;27;34564;-92
2022/01/05 04:15:43;;;;;;;1.55;1.35;;;;;;;10.71;66.91;97960.66;5316771;27;35313;-90
2022/01/05 04:18:13;;;;;;;2.78;1.77;;;;;;;10.74;66.87;97953.59;5317317;27;33637;-90
2022/01/05 04:20:42;;;;;;;1.35;1.25;;;;;;;10.98;65.88;97963.84;5316420;27;34703;-90
2022/01/05 04:23:13;;;;;;;;;;;;;;;10.89;66.06;97957.28;5311173;27;33812;-90
2022/01/05 04:25:42;;;;;;;1.37;1.10;;;;;;;11.06;65.46;97949.63;5317017;27;33177;-90
2022/01/05 04:28:10;;;;;;;2.28;1.42;;;;;;;10.79;66.24;97951.63;5323119;27;33571;-89
2022/01/05 04:30:39;;;;;;;2.55;1.45;;;;;;;10.83;66.24;97958.37;5319516;27;33592;-89
2022/01/05 04:33:08;;;;;;;2.75;1.40;;;;;;;10.83;66.28;97958.37;5317108;27;33895;-91
2022/01/05 04:35:58;;;;;;;1.62;1.27;;;;;;;10.64;66.89;97960.91;5317690;27;34110;-89
2022/01/05 04:38:27;;;;;;;1.95;1.62;;;;;;;10.71;66.59;97960.66;5317308;27;33429;-89
2022/01/05 04:40:58;;;;;;;2.08;1.52;;;;;;;10.76;66.42;97966.50;5320739;27;33699;-89
2022/01/05 04:43:27;;;;;;;3.35;1.98;;;;;;;10.61;66.82;97960.19;5322874;27;34144;-89
2022/01/05 04:45:58;;;;;;;2.87;1.80;;;;;;;10.78;66.26;97964.69;5316728;27;32625;-89
2022/01/05 04:48:27;;;;;;;1.52;1.37;;;;;;;10.64;66.85;97954.88;5319088;27;33574;-88
2022/01/05 04:50:56;;;;;;;2.08;1.48;;;;;;;10.63;66.72;97950.56;5316550;27;34104;-88
2022/01/05 04:53:26;;;;;;;2.85;1.95;;;;;;;10.72;66.35;97957.16;5317267;27;33607;-90
2022/01/05 04:55:55;;;;;;;2.28;1.55;;;;;;;10.88;66.03;97945.22;5322662;27;34571;-89
2022/01/05 04:58:28;;;;;;;2.70;1.60;;;;;;;10.66;66.79;97937.50;5316992;27;33958;-89
2022/01/05 05:00:57;;;;;;;3.70;2.00;;;;;;;10.75;66.60;97944.03;5316069;27;34697;-89
2022/01/05 05:03:25;;;;;;;2.55;1.73;;;;;;;10.81;66.41;97943.81;5316763;27;33597;-90
2022/01/05 05:05:54;;;;;;;2.58;1.45;;;;;;;10.76;66.52;97937.97;5317927;27;33268;-89
2022/01/05 05:08:23;;;;;;;1.58;1.27;;;;;;;10.73;66.47;97940.66;5322692;27;33761;-90
2022/01/05 05:10:53;;;;;;;2.10;1.60;;;;;;;10.73;66.45;97948.44;5317036;27;33965;-90
2022/01/05 05:13:22;;;;;;;1.50;1.30;;;;;;;10.69;66.51;97942.56;5316810;27;33110;-90
2022/01/05 05:15:51;;;;;;;2.25;1.58;;;;;;;10.75;66.19;97949.22;5316393;27;33984;-88
2022/01/05 05:18:19;;;;;;;1.75;1.40;;;;;;;10.68;66.44;97944.31;5317568;27;33962;-88
2022/01/05 05:20:51;;;;;;;1.75;1.30;;;;;;;10.75;66.02;97951.81;5321149;27;34011;-91
2022/01/05 05:23:20;;;;;;;2.70;1.67;;;;;;;10.85;65.83;97951.37;5322959;27;33474;-89
2022/01/05 05:25:49;;;;;;;1.92;1.52;;;;;;;10.58;66.70;97947.34;5316996;27;33366;-89
2022/01/05 05:28:19;;;;;;;1.62;1.45;;;;;;;10.68;66.41;97951.25;5316549;27;34076;-89
2022/01/05 05:30:47;;;;;;;3.22;1.40;;;;;;;10.70;66.28;97946.00;5317298;27;36437;-88
2022/01/05 05:33:16;;;;;;;2.15;1.70;;;;;;;10.68;66.16;97948.66;5316316;27;34425;-89
2022/01/05 05:35:45;;;;;;;3.53;1.70;;;;;;;10.74;66.03;97956.19;5322583;27;34328;-89
2022/01/05 05:38:15;;;;;;;2.50;1.83;;;;;;;10.58;66.74;97950.78;5317423;27;34535;-91
2022/01/05 05:40:44;;;;;;;2.13;1.40;;;;;;;10.41;67.48;97958.37;5316433;27;34009;-89
2022/01/05 05:43:13;;;;;;;2.08;1.42;;;;;;;10.71;66.47;97958.06;5317054;27;33634;-89
2022/01/05 05:45:43;;;;;;;2.95;1.65;;;;;;;10.65;66.61;97967.75;5316983;27;32979;-90
2022/01/05 05:48:12;;;;;;;1.85;1.42;;;;;;;10.58;66.75;97970.66;5322529;27;33881;-89
2022/01/05 05:50:41;;;;;;;2.85;1.87;;;;;;;10.74;66.30;97973.50;5317213;27;34454;-89
2022/01/05 05:53:10;;;;;;;2.83;1.42;;;;;;;10.65;66.70;97970.34;5317135;27;33820;-89
2022/01/05 05:55:40;;;;;;;2.53;1.85;;;;;;;10.60;66.85;97980.06;5316906;27;33488;-90
2022/01/05 05:58:09;;;;;;;2.65;1.95;;;;;;;10.57;66.74;97971.59;5317276;27;33752;-92
2022/01/05 06:00:37;;;;;;;2.03;1.52;;;;;;;10.38;67.64;97969.72;5322321;27;34009;-89
2022/01/05 06:03:15;;;;;;;3.92;2.37;;;;;;;10.59;66.73;97977.56;5322901;27;34645;-90
2022/01/05 06:05:44;;;;;;;1.45;1.30;;;;;;;10.43;67.24;97980.75;5316306;27;32671;-89
2022/01/05 06:08:12;;;;;;;2.10;1.52;;;;;;;10.35;67.41;97976.78;5317207;27;34664;-90
2022/01/05 06:10:41;;;;;;;3.28;1.73;;;;;;;10.40;67.25;97980.03;5316777;27;34074;-94
2022/01/05 06:13:10;;;;;;;2.62;1.60;;;;;;;10.51;66.95;97982.19;5316740;27;33549;-90
2022/01/05 06:15:38;;;;;;;2.40;1.50;;;;;;;10.30;67.87;97983.91;5323018;27;34213;-89
2022/01/05 06:18:07;;;;;;;2.60;1.90;;;;;;;10.05;68.81;97987.41;5317324;27;33564;-90
2022/01/05 06:20:37;;;;;;;3.53;2.10;;;;;;;10.39;67.18;97981.81;5296458;27;32966;-90
2022/01/05 06:23:06;;;;;;;3.60;1.90;;;;;;;10.44;66.78;97979.88;5316028;27;34778;-89
2022/01/05 06:25:35;;;;;;;2.75;2.33;;;;;;;10.26;67.71;97986.56;5315937;27;33541;-90
2022/01/05 06:28:13;;;;;;;2.60;1.50;;;;;;;10.32;67.58;97980.34;5322111;27;34659;-90
2022/01/05 06:30:43;;;;;;;3.22;1.73;;;;;;;10.41;67.56;97981.72;5298926;27;32709;-89
2022/01/05 06:33:11;;;;;;;3.33;2.20;;;;;;;10.33;68.26;97986.38;5316225;27;33749;-90
2022/01/05 07:55:37;;;;;;;3.42;2.08;;;;;;;11.62;65.54;97991.34;5321893;26;20115;-89
2022/01/05 07:58:11;;;;;;;2.53;1.60;;;;;;;11.52;65.82;97981.37;5343107;26;33545;-88
2022/01/05 08:00:39;;;;;;;4.32;1.92;;;;;;;11.74;65.25;97983.84;5335782;26;33721;-88
2022/01/05 08:03:09;;;;;;;2.47;1.77;;;;;;;11.64;65.64;97992.94;5337258;26;33536;-89
2022/01/05 08:05:38;;;;;;;2.47;1.40;;;;;;;11.69;65.46;97996.22;5338283;26;33216;-89
2022/01/05 08:08:06;;;;;;;3.53;2.00;;;;;;;11.89;65.03;97997.09;5337984;26;33604;-88
2022/01/05 08:10:37;;;;;;;3.70;2.17;;;;;;;11.67;65.69;97989.37;5321983;26;33959;-87
2022/01/05 08:13:06;;;;;;;4.30;2.87;;;;;;;11.91;64.99;97997.84;5301849;27;32157;-88
2022/01/05 08:15:35;;;;;;;3.47;1.77;;;;;;;11.84;64.83;98010.25;5315832;27;33639;-88
2022/01/05 08:18:03;;;;;;;2.85;1.92;;;;;;;11.97;64.83;98017.53;5315268;27;34052;-90
2022/01/05 08:20:34;;;;;;;4.20;1.77;;;;;;;11.93;64.81;98017.66;5315026;27;33878;-89
2022/01/05 08:23:03;;;;;;;2.50;1.60;;;;;;;11.94;64.99;98019.34;5315060;27;33738;-92
2022/01/05 08:25:31;;;;;;;3.50;1.60;;;;;;;11.84;65.49;98025.84;5321213;27;34695;-92
2022/01/05 08:28:01;;;;;;;2.50;1.70;;;;;;;12.03;64.90;98010.28;5314713;27;33620;-89
2022/01/05 08:30:33;;;;;;;3.40;1.50;;;;;;;12.25;64.21;98002.34;5316508;27;34577;-89
2022/01/05 08:33:03;;;;;;;2.45;1.80;;;;;;;12.12;64.34;98009.00;5315549;27;33077;-89
2022/01/05 08:35:32;;;;;;;2.75;1.45;;;;;;;12.23;64.15;98011.97;5315516;27;33729;-89
2022/01/05 08:38:01;;;;;;;1.98;1.58;;;;;;;12.13;64.62;98013.31;5321037;27;34016;-89
2022/01/05 08:40:31;;;;;;;2.53;1.50;;;;;;;12.24;64.26;98012.81;5315397;27;34426;-91
2022/01/05 08:43:04;;;;;;;2.33;1.50;;;;;;;12.36;64.21;98026.06;5316253;27;34121;-92
2022/01/05 08:45:33;;;;;;;3.15;1.60;;;;;;;12.44;64.06;98014.47;5315302;27;34943;-89
2022/01/05 08:48:02;;;;;;;2.20;2.03;;;;;;;12.36;63.98;98013.06;5315542;27;34190;-90
2022/01/05 08:50:33;;;;;;;4.35;1.87;;;;;;;12.53;63.63;98008.81;5316214;27;34204;-88
2022/01/05 08:53:03;;;;;;;2.72;1.77;;;;;;;12.55;63.54;98017.41;5320661;27;33232;-89
2022/01/05 08:55:34;;;;;;;2.25;1.55;;;;;;;12.56;63.49;98024.28;5314765;27;33908;-89
2022/01/05 08:58:04;;;;;;;2.50;1.45;;;;;;;12.49;63.93;98017.69;5315475;27;34496;-89
2022/01/05 09:00:33;;;;;;;2.53;1.40;;;;;;;12.76;62.94;98029.38;5295565;27;33155;-88
2022/01/05 09:03:02;;;;;;;2.97;1.52;;;;;;;12.61;63.34;98027.50;5316276;27;33954;-89
2022/01/05 09:05:31;;;;;;;2.97;1.75;;;;;;;12.61;63.42;98037.91;5319203;27;34390;-89
2022/01/05 09:08:01;;;;;;;2.30;1.67;;;;;;;12.52;63.81;98035.75;5313238;27;33471;-90
2022/01/05 09:10:33;;;;;;;3.60;2.03;;;;;;;12.67;63.41;98050.63;5314479;27;34455;-89
2022/01/05 09:13:02;;;;;;;3.10;1.70;;;;;;;12.75;63.26;98048.50;5316176;27;32912;-89
2022/01/05 09:15:33;;;;;;;3.50;1.80;;;;;;;12.71;63.50;98051.31;5315367;27;33723;-88
2022/01/05 09:18:06;;;;;;;2.87;2.50;;;;;;;12.82;63.14;98043.84;5321048;27;34179;-88
2022/01/05 09:20:35;;;;;;;3.78;1.75;;;;;;;12.77;63.62;98046.66;5320487;27;33177;-89
2022/01/05 09:23:04;;;;;;;5.22;2.47;;;;;;;12.76;63.56;98060.59;5317201;27;33625;-89
2022/01/05 09:25:33;;;;;;;2.35;1.35;;;;;;;12.73;63.78;98058.16;5306412;27;34652;-90
2022/01/05 09:28:02;;;;;;;3.72;2.10;;;;;;;12.86;62.93;98054.97;5316001;27;33894;-93
2022/01/05 09:30:32;;;;;;;5.55;2.03;;;;;;;13.04;62.40;98064.44;5315963;27;33813;-92
2022/01/05 09:33:01;;;;;;;2.15;1.50;;;;;;;12.63;63.45;98077.69;5322084;27;33689;-90
2022/01/05 09:35:30;;;;;;;2.10;1.27;;;;;;;12.70;63.42;98081.69;5315691;27;33737;-89
2022/01/05 09:38:10;;;;;;;1.73;1.17;;;;;;;12.55;62.97;98087.63;5316596;27;34930;-89
2022/01/05 09:43:26;;;;;;;3.12;1.70;;;;;;;11.97;63.89;98080.72;5315156;27;33480;-91
2022/01/05 09:46:06;;;;;;;1.85;1.48;;;;;;;11.92;63.97;98080.09;5315882;27;34126;-88
2022/01/05 09:48:43;;;;;;;3.35;1.48;;;;;;;11.67;64.68;98081.16;5321053;27;33298;-92
2022/01/05 09:51:15;;;;;;;3.30;1.80;;;;;;;11.85;64.45;98081.25;5321177;27;33203;-90
2022/01/05 09:53:44;;;;;;;4.00;2.10;;;;;;;11.81;64.33;98077.09;5315273;27;33740;-89
2022/01/05 09:56:31;;;;;;;1.83;1.40;;;;;;;12.06;63.60;98074.28;5315718;27;33874;-92
2022/01/05 09:59:02;;;;;;;3.22;1.77;;;;;;;12.00;63.88;98079.75;5315633;27;35071;-91
2022/01/05 10:01:33;;;;;;;1.62;1.12;;;;;;;11.61;65.27;98068.41;5314726;27;35546;-89
2022/01/05 10:04:05;;;;;;;1.60;1.40;;;;;;;11.79;64.50;98071.97;5320608;27;33070;-89
2022/01/05 10:06:38;;;;;;;2.10;1.73;;;;;;;11.48;65.62;98075.06;5321425;27;33628;-89
2022/01/05 10:09:08;;;;;;;1.67;1.40;;;;;;;11.55;65.57;98073.91;5315530;27;34046;-89
2022/01/05 10:11:37;;;;;;;2.50;1.58;;;;;;;11.39;65.90;98084.06;5315123;27;33825;-89
2022/01/05 10:14:06;;;;;;;3.08;1.90;;;;;;;11.50;65.71;98083.59;5314902;27;33869;-89
2022/01/05 10:16:36;;;;;;;2.03;1.62;;;;;;;11.32;66.35;98082.66;5315302;27;33987;-88
2022/01/05 10:19:08;;;;;;;1.80;1.55;;;;;;;11.29;66.64;98091.41;5321212;27;33791;-89
2022/01/05 10:21:39;;;;;;;4.45;1.90;;;;;;;11.35;66.71;98084.25;5315220;27;33609;-91
2022/01/05 10:24:08;;;;;;;2.87;2.00;;;;;;;11.35;66.67;98081.66;5314854;27;33509;-89
2022/01/05 10:26:39;;;;;;;2.22;1.95;;;;;;;11.42;66.50;98085.69;5314887;27;33622;-89
2022/01/05 10:29:14;;;;;;;1.98;1.52;;;;;;;11.46;66.47;98084.66;5315589;27;33288;-88
2022/01/05 10:31:45;;;;;;;4.60;1.73;;;;;;;11.25;67.00;98074.25;5320444;27;33859;-91
2022/01/05 10:34:16;;;;;;;1.67;1.58;;;;;;;11.20;67.25;98090.94;5315200;27;33486;-88
2022/01/05 10:36:46;;;;;;;;;;;;;;;11.15;67.11;98088.53;5314543;27;33866;-89
2022/01/05 10:39:15;;;;;;;2.47;1.40;;;;;;;10.86;67.19;98085.38;5315243;27;33716;-89
2022/01/05 10:41:46;;;;;;;2.53;1.52;;;;;;;10.81;67.53;98076.09;5314515;27;33526;-89
2022/01/05 10:44:19;;;;;;;;;;;;;;;10.63;68.08;98082.84;5321623;27;33196;-89
2022/01/05 10:46:51;;;;;;;1.40;1.30;;;;;;;10.47;69.00;98092.97;5316189;27;33809;-89
2022/01/05 10:49:31;;;;;;;1.67;1.40;;;;;;;10.73;67.63;98102.34;5314409;27;34109;-88
2022/01/05 10:52:02;;;;;;;2.12;1.52;;;;;;;10.65;67.89;98101.78;5314645;27;34264;-87
2022/01/05 10:54:31;;;;;;;2.10;1.45;;;;;;;10.62;68.32;98117.47;5315622;27;33335;-88
2022/01/05 10:57:08;;;;;;;2.08;1.40;;;;;;;10.32;70.51;98109.13;5315174;27;33791;-89
2022/01/05 10:59:42;;;;;;;1.40;1.30;;;;;;;10.45;69.94;98112.91;5321035;27;34075;-89
2022/01/05 11:02:27;;;;;;;1.30;1.17;;;;;;;10.38;71.02;98111.47;5317375;27;34860;-89
2022/01/05 11:04:58;;;;;;;1.30;1.20;;;;;;;10.44;70.87;98114.69;5314802;27;33619;-89
2022/01/05 11:07:29;;;;;;;1.30;1.20;;;;;;;10.26;70.82;98113.56;5313694;27;34827;-89
2022/01/05 11:10:00;;;;;;;1.30;1.20;;;;;;;10.25;71.23;98130.03;5312509;27;34307;-89
2022/01/05 11:12:33;;;;;;;;;;;;;;;10.22;71.12;98130.16;5313800;27;34118;-88
2022/01/05 11:15:20;;;;;;;1.12;1.08;;;;;;;9.95;71.28;98133.72;5319879;27;33808;-88
2022/01/05 11:18:16;;;;;;;1.20;1.10;;;;;;;9.90;72.21;98143.41;5320544;27;34227;-90
2022/01/05 11:20:49;;;;;;;1.10;1.10;;;;;;;9.54;73.23;98154.13;5320834;27;33858;-89
2022/01/05 11:23:19;;;;;;;1.20;1.10;;;;;;;9.47;73.71;98150.94;5314744;27;33782;-89
2022/01/05 11:25:49;;;;;;;1.10;1.10;;;;;;;9.89;72.16;98137.38;5314592;27;32577;-90
2022/01/05 11:28:19;;;;;;;1.92;1.50;;;;;;;10.19;70.79;98140.59;5315391;27;33787;-90
2022/01/05 11:30:49;;;;;;;1.67;1.15;;;;;;;9.99;70.40;98150.88;5294804;27;32524;-89
2022/01/05 11:33:20;;;;;;;1.27;1.17;;;;;;;9.74;70.84;98148.28;5320704;27;34077;-87
2022/01/05 11:35:50;;;;;;;1.67;1.55;;;;;;;9.54;71.40;98154.13;5314948;27;32378;-89
2022/01/05 11:38:20;;;;;;;1.00;1.00;;;;;;;9.20;72.21;98165.59;5314130;27;34164;-89
2022/01/05 11:40:52;;;;;;;1.30;1.20;;;;;;;9.24;72.17;98168.94;5314877;27;33878;-91
2022/01/05 11:43:24;;;;;;;1.08;1.05;;;;;;;9.23;72.49;98191.38;5314677;27;33370;-90
2022/01/05 11:45:53;;;;;;;;;;;;;;;9.43;71.93;98195.91;5322011;27;34432;-90
2022/01/05 11:48:26;;;;;;;1.17;1.10;;;;;;;9.78;70.29;98196.47;5314635;27;34098;-88
2022/01/05 11:50:57;;;;;;;1.10;1.10;;;;;;;9.44;71.36;98168.28;5315069;27;34673;-89
2022/01/05 11:53:37;;;;;;;1.23;1.10;;;;;;;9.33;72.16;98171.25;5314693;27;33598;-89
2022/01/05 11:56:12;;;;;;;1.27;1.17;;;;;;;8.98;73.95;98163.69;5314477;27;32854;-89
2022/01/05 11:58:56;;;;;;;0.90;0.90;;;;;;;9.17;73.91;98166.53;5321266;27;34446;-91
2022/01/05 12:01:35;;;;;;;1.00;1.00;;;;;;;9.45;72.66;98170.84;5321497;27;34086;-89
2022/01/05 12:04:13;;;;;;;1.17;1.12;;;;;;;9.32;72.72;98191.06;5316316;27;33929;-89
2022/01/05 12:07:05;;;;;;;0.90;0.90;;;;;;;9.34;72.47;98193.63;5315585;27;33625;-88
2022/01/05 12:09:39;;;;;;;1.00;1.00;;;;;;;9.32;72.03;98208.34;5315518;27;33794;-90
2022/01/05 12:12:31;;;;;;;1.10;1.10;;;;;;;8.96;73.16;98204.28;5314333;27;33884;-91
2022/01/05 12:15:03;;;;;;;1.00;1.00;;;;;;;9.09;71.89;98204.75;5303248;27;34879;-88
2022/01/05 12:17:36;;;;;;;1.12;1.10;;;;;;;8.81;72.96;98189.22;5315243;27;33411;-90
2022/01/05 12:20:07;;;;;;;;;;;;;;;8.91;72.35;98200.97;5321865;27;33531;-91
2022/01/05 12:22:36;;;;;;;1.12;1.10;;;;;;;8.73;73.58;98199.78;5295885;27;32967;-90
2022/01/05 12:25:09;;;;;;;1.40;1.30;;;;;;;8.86;73.65;98214.94;5315392;27;34627;-88
2022/01/05 12:27:39;;;;;;;1.55;1.23;;;;;;;8.99;72.99;98218.88;5315411;27;33194;-89
2022/01/05 12:30:35;;;;;;;1.87;1.12;;;;;;;9.06;72.56;98202.25;5315649;27;32948;-90
2022/01/05 12:33:07;;;;;;;1.10;1.10;;;;;;;9.17;72.30;98200.16;5316009;27;33660;-90
2022/01/05 12:35:48;;;;;;;1.40;1.30;;;;;;;8.95;73.02;98206.91;5320424;27;34334;-90
2022/01/05 12:38:40;;;;;;;1.58;1.42;;;;;;;8.95;73.46;98214.66;5321638;27;32658;-90
2022/01/05 12:41:42;;;;;;;1.15;1.15;;;;;;;8.93;73.49;98213.88;5315431;27;33416;-89
2022/01/05 12:44:33;;;;;;;1.27;1.17;;;;;;;8.82;73.99;98214.19;5313453;27;34717;-89
2022/01/05 12:47:02;;;;;;;1.33;1.23;;;;;;;9.15;73.55;98220.06;5316473;27;33330;-89
2022/01/05 12:49:33;;;;;;;1.30;1.20;;;;;;;9.20;73.38;98217.34;5316040;27;34068;-90
2022/01/05 12:52:07;;;;;;;1.10;1.10;;;;;;;9.54;71.88;98218.84;5315961;27;33911;-90
2022/01/05 12:54:44;;;;;;;3.00;1.70;;;;;;;9.09;72.68;98232.37;5321324;27;34912;-90
2022/01/05 12:57:25;;;;;;;1.37;1.27;;;;;;;8.94;73.74;98233.69;5321032;27;33883;-89
2022/01/05 13:00:02;;;;;;;1.45;1.35;;;;;;;9.28;72.26;98249.00;5316743;27;32244;-88
2022/01/05 13:02:41;;;;;;;1.40;1.30;;;;;;;8.80;72.89;98252.19;5306127;27;33884;-90
2022/01/05 13:05:12;;;;;;;3.00;1.70;;;;;;;8.85;73.20;98241.72;5314158;27;34775;-92
2022/01/05 13:07:44;;;;;;;1.48;1.33;;;;;;;8.79;73.57;98250.47;5313798;27;33717;-90
2022/01/05 13:10:14;;;;;;;1.90;1.60;;;;;;;9.10;72.85;98254.75;5313839;27;34013;-89
2022/01/05 15:27:14;;;;;;;3.62;2.08;;;;;;;9.19;70.75;98425.25;5175599;27;20422;-90
2022/01/05 15:29:43;;;;;;;4.68;2.80;;;;;;;9.02;71.70;98448.16;5203563;27;34121;-89
2022/01/05 15:32:14;;;;;;;7.07;1.70;;;;;;;9.22;70.72;98437.25;5203406;27;33046;-90